sensor_id;sensor_type;location;lat;lon;timestamp;P1;durP1;ratioP1;P2;durP2;ratioP2
70725;SDS011;58304;53.104;6.022;2023-02-15T00:01:10;37.70;;;18.17;;
70725;SDS011;58304;53.104;6.022;2023-02-15T00:03:36;35.80;;;16.63;;
70725;SDS011;58304;53.104;6.022;2023-02-15T00:06:03;36.97;;;17.88;;
70725;SDS011;58304;53.104;6.022;2023-02-15T00:08:29;34.45;;;16.65;;
70725;SDS011;58304;53.104;6.022;2023-02-15T00:11:03;31.58;;;15.23;;
70725;SDS011;58304;53.104;6.022;2023-02-15T00:13:36;36.22;;;16.65;;
70725;SDS011;58304;53.104;6.022;2023-02-15T00:16:07;39.05;;;18.15;;
70725;SDS011;58304;53.104;6.022;2023-02-15T00:18:34;43.90;;;19.33;;
70725;SDS011;58304;53.104;6.022;2023-02-15T00:21:08;47.58;;;19.00;;
70725;SDS011;58304;53.104;6.022;2023-02-15T00:23:36;44.13;;;19.27;;
70725;SDS011;58304;53.104;6.022;2023-02-15T00:26:09;47.35;;;19.65;;
70725;SDS011;58304;53.104;6.022;2023-02-15T00:28:37;49.97;;;19.75;;
70725;SDS011;58304;53.104;6.022;2023-02-15T00:33:33;51.42;;;19.38;;
70725;SDS011;58304;53.104;6.022;2023-02-15T00:35:59;50.60;;;20.95;;
70725;SDS011;58304;53.104;6.022;2023-02-15T00:38:26;74.15;;;21.95;;
70725;SDS011;58304;53.104;6.022;2023-02-15T00:41:02;70.82;;;21.55;;
70725;SDS011;58304;53.104;6.022;2023-02-15T00:43:30;171.60;;;27.40;;
70725;SDS011;58304;53.104;6.022;2023-02-15T00:45:57;228.55;;;25.77;;
70725;SDS011;58304;53.104;6.022;2023-02-15T00:48:23;154.13;;;22.27;;
70725;SDS011;58304;53.104;6.022;2023-02-15T00:50:49;139.40;;;20.08;;
70725;SDS011;58304;53.104;6.022;2023-02-15T00:53:20;145.73;;;20.00;;
70725;SDS011;58304;53.104;6.022;2023-02-15T00:55:46;40.83;;;16.10;;
70725;SDS011;58304;53.104;6.022;2023-02-15T01:00:38;110.72;;;17.63;;
70725;SDS011;58304;53.104;6.022;2023-02-15T01:03:06;175.43;;;23.30;;
70725;SDS011;58304;53.104;6.022;2023-02-15T01:05:31;158.10;;;23.15;;
70725;SDS011;58304;53.104;6.022;2023-02-15T01:07:57;131.27;;;20.38;;
70725;SDS011;58304;53.104;6.022;2023-02-15T01:12:50;50.55;;;16.50;;
70725;SDS011;58304;53.104;6.022;2023-02-15T01:15:16;40.38;;;17.35;;
70725;SDS011;58304;53.104;6.022;2023-02-15T01:17:42;43.00;;;18.50;;
70725;SDS011;58304;53.104;6.022;2023-02-15T01:20:10;40.90;;;18.02;;
70725;SDS011;58304;53.104;6.022;2023-02-15T01:22:36;36.45;;;16.00;;
70725;SDS011;58304;53.104;6.022;2023-02-15T01:25:02;35.30;;;16.67;;
70725;SDS011;58304;53.104;6.022;2023-02-15T01:27:28;36.10;;;15.43;;
70725;SDS011;58304;53.104;6.022;2023-02-15T01:29:55;31.98;;;14.20;;
70725;SDS011;58304;53.104;6.022;2023-02-15T01:32:21;46.33;;;14.68;;
70725;SDS011;58304;53.104;6.022;2023-02-15T01:34:47;29.73;;;14.85;;
70725;SDS011;58304;53.104;6.022;2023-02-15T01:37:12;32.88;;;15.05;;
70725;SDS011;58304;53.104;6.022;2023-02-15T01:39:38;28.40;;;14.27;;
70725;SDS011;58304;53.104;6.022;2023-02-15T01:42:04;28.33;;;14.43;;
70725;SDS011;58304;53.104;6.022;2023-02-15T01:44:49;29.25;;;14.75;;
70725;SDS011;58304;53.104;6.022;2023-02-15T01:47:37;26.67;;;13.57;;
70725;SDS011;58304;53.104;6.022;2023-02-15T01:50:16;29.55;;;14.27;;
70725;SDS011;58304;53.104;6.022;2023-02-15T01:52:48;33.63;;;15.05;;
70725;SDS011;58304;53.104;6.022;2023-02-15T01:55:17;63.15;;;15.70;;
70725;SDS011;58304;53.104;6.022;2023-02-15T01:57:44;30.70;;;14.90;;
70725;SDS011;58304;53.104;6.022;2023-02-15T02:00:11;56.17;;;15.98;;
70725;SDS011;58304;53.104;6.022;2023-02-15T02:02:39;34.63;;;16.10;;
70725;SDS011;58304;53.104;6.022;2023-02-15T02:05:07;83.57;;;17.17;;
70725;SDS011;58304;53.104;6.022;2023-02-15T02:07:34;253.90;;;22.10;;
70725;SDS011;58304;53.104;6.022;2023-02-15T02:10:03;217.18;;;19.65;;
70725;SDS011;58304;53.104;6.022;2023-02-15T02:12:36;145.40;;;16.35;;
70725;SDS011;58304;53.104;6.022;2023-02-15T02:15:03;64.57;;;12.82;;
70725;SDS011;58304;53.104;6.022;2023-02-15T02:39:19;29.27;;;12.50;;
70725;SDS011;58304;53.104;6.022;2023-02-15T02:44:41;30.45;;;12.57;;
70725;SDS011;58304;53.104;6.022;2023-02-15T02:47:33;29.73;;;11.30;;
70725;SDS011;58304;53.104;6.022;2023-02-15T02:50:15;31.35;;;11.90;;
70725;SDS011;58304;53.104;6.022;2023-02-15T02:52:50;27.10;;;11.47;;
70725;SDS011;58304;53.104;6.022;2023-02-15T02:58:27;26.48;;;12.68;;
70725;SDS011;58304;53.104;6.022;2023-02-15T03:00:57;30.25;;;12.48;;
70725;SDS011;58304;53.104;6.022;2023-02-15T03:03:43;28.70;;;12.45;;
70725;SDS011;58304;53.104;6.022;2023-02-15T03:06:13;30.60;;;13.05;;
70725;SDS011;58304;53.104;6.022;2023-02-15T03:08:54;28.20;;;11.65;;
70725;SDS011;58304;53.104;6.022;2023-02-15T03:11:26;25.98;;;12.07;;
70725;SDS011;58304;53.104;6.022;2023-02-15T03:13:51;26.10;;;11.63;;
70725;SDS011;58304;53.104;6.022;2023-02-15T03:16:17;27.48;;;11.52;;
70725;SDS011;58304;53.104;6.022;2023-02-15T03:19:06;30.42;;;12.63;;
70725;SDS011;58304;53.104;6.022;2023-02-15T03:21:43;26.08;;;11.05;;
70725;SDS011;58304;53.104;6.022;2023-02-15T03:24:29;29.77;;;11.60;;
70725;SDS011;58304;53.104;6.022;2023-02-15T03:27:07;28.40;;;12.13;;
70725;SDS011;58304;53.104;6.022;2023-02-15T03:29:37;29.00;;;13.48;;
70725;SDS011;58304;53.104;6.022;2023-02-15T03:32:04;23.90;;;10.65;;
70725;SDS011;58304;53.104;6.022;2023-02-15T03:34:35;24.38;;;11.18;;
70725;SDS011;58304;53.104;6.022;2023-02-15T03:43:14;24.17;;;10.57;;
70725;SDS011;58304;53.104;6.022;2023-02-15T03:45:47;24.70;;;11.37;;
70725;SDS011;58304;53.104;6.022;2023-02-15T03:48:21;24.43;;;10.30;;
70725;SDS011;58304;53.104;6.022;2023-02-15T03:50:54;22.00;;;10.20;;
70725;SDS011;58304;53.104;6.022;2023-02-15T03:53:41;20.83;;;10.18;;
70725;SDS011;58304;53.104;6.022;2023-02-15T03:56:10;22.42;;;11.05;;
70725;SDS011;58304;53.104;6.022;2023-02-15T03:58:36;22.05;;;10.70;;
70725;SDS011;58304;53.104;6.022;2023-02-15T04:04:26;23.88;;;11.07;;
70725;SDS011;58304;53.104;6.022;2023-02-15T04:06:56;23.98;;;11.20;;
70725;SDS011;58304;53.104;6.022;2023-02-15T04:09:22;23.88;;;10.73;;
70725;SDS011;58304;53.104;6.022;2023-02-15T04:12:06;21.20;;;9.95;;
70725;SDS011;58304;53.104;6.022;2023-02-15T04:14:32;21.45;;;10.30;;
70725;SDS011;58304;53.104;6.022;2023-02-15T04:17:16;21.67;;;10.43;;
70725;SDS011;58304;53.104;6.022;2023-02-15T04:19:42;21.02;;;10.45;;
70725;SDS011;58304;53.104;6.022;2023-02-15T04:22:26;20.25;;;8.95;;
70725;SDS011;58304;53.104;6.022;2023-02-15T04:25:10;21.60;;;9.98;;
70725;SDS011;58304;53.104;6.022;2023-02-15T04:27:45;21.63;;;10.45;;
70725;SDS011;58304;53.104;6.022;2023-02-15T04:30:13;19.35;;;9.70;;
70725;SDS011;58304;53.104;6.022;2023-02-15T04:32:40;23.23;;;10.93;;
70725;SDS011;58304;53.104;6.022;2023-02-15T04:35:08;25.33;;;11.07;;
70725;SDS011;58304;53.104;6.022;2023-02-15T04:37:34;26.40;;;11.52;;
70725;SDS011;58304;53.104;6.022;2023-02-15T04:40:00;22.80;;;11.63;;
70725;SDS011;58304;53.104;6.022;2023-02-15T04:42:26;26.65;;;11.48;;
70725;SDS011;58304;53.104;6.022;2023-02-15T04:44:52;26.02;;;10.27;;
70725;SDS011;58304;53.104;6.022;2023-02-15T04:47:18;26.40;;;11.00;;
70725;SDS011;58304;53.104;6.022;2023-02-15T04:49:44;25.33;;;12.20;;
70725;SDS011;58304;53.104;6.022;2023-02-15T04:52:10;24.48;;;11.48;;
70725;SDS011;58304;53.104;6.022;2023-02-15T04:54:36;26.58;;;12.02;;
70725;SDS011;58304;53.104;6.022;2023-02-15T04:57:03;24.13;;;11.32;;
70725;SDS011;58304;53.104;6.022;2023-02-15T04:59:28;25.25;;;11.02;;
70725;SDS011;58304;53.104;6.022;2023-02-15T05:01:54;28.73;;;12.23;;
70725;SDS011;58304;53.104;6.022;2023-02-15T05:04:20;23.70;;;10.57;;
70725;SDS011;58304;53.104;6.022;2023-02-15T05:06:45;23.45;;;10.40;;
70725;SDS011;58304;53.104;6.022;2023-02-15T05:09:11;27.02;;;12.18;;
70725;SDS011;58304;53.104;6.022;2023-02-15T05:11:37;22.95;;;10.15;;
70725;SDS011;58304;53.104;6.022;2023-02-15T05:14:03;23.50;;;10.55;;
70725;SDS011;58304;53.104;6.022;2023-02-15T05:16:29;22.95;;;10.45;;
70725;SDS011;58304;53.104;6.022;2023-02-15T05:18:55;24.00;;;10.73;;
70725;SDS011;58304;53.104;6.022;2023-02-15T05:21:21;25.58;;;10.95;;
70725;SDS011;58304;53.104;6.022;2023-02-15T05:23:46;22.65;;;10.48;;
70725;SDS011;58304;53.104;6.022;2023-02-15T05:26:12;24.05;;;10.57;;
70725;SDS011;58304;53.104;6.022;2023-02-15T05:29:01;27.88;;;12.02;;
70725;SDS011;58304;53.104;6.022;2023-02-15T05:31:26;26.58;;;11.80;;
70725;SDS011;58304;53.104;6.022;2023-02-15T05:33:52;26.77;;;12.63;;
70725;SDS011;58304;53.104;6.022;2023-02-15T05:36:18;23.73;;;10.70;;
70725;SDS011;58304;53.104;6.022;2023-02-15T05:38:43;27.98;;;12.38;;
70725;SDS011;58304;53.104;6.022;2023-02-15T05:41:09;25.83;;;11.30;;
70725;SDS011;58304;53.104;6.022;2023-02-15T05:43:36;25.65;;;10.90;;
70725;SDS011;58304;53.104;6.022;2023-02-15T05:46:02;43.20;;;17.73;;
70725;SDS011;58304;53.104;6.022;2023-02-15T05:48:30;44.80;;;19.38;;
70725;SDS011;58304;53.104;6.022;2023-02-15T05:51:00;46.88;;;19.52;;
70725;SDS011;58304;53.104;6.022;2023-02-15T05:53:38;29.45;;;13.98;;
70725;SDS011;58304;53.104;6.022;2023-02-15T05:56:05;46.38;;;18.75;;
70725;SDS011;58304;53.104;6.022;2023-02-15T05:58:33;48.08;;;19.27;;
70725;SDS011;58304;53.104;6.022;2023-02-15T06:01:06;49.53;;;20.00;;
70725;SDS011;58304;53.104;6.022;2023-02-15T06:03:36;49.45;;;20.20;;
70725;SDS011;58304;53.104;6.022;2023-02-15T06:06:02;49.85;;;20.45;;
70725;SDS011;58304;53.104;6.022;2023-02-15T06:08:29;50.55;;;20.30;;
70725;SDS011;58304;53.104;6.022;2023-02-15T06:10:56;52.22;;;21.80;;
70725;SDS011;58304;53.104;6.022;2023-02-15T06:13:21;57.80;;;20.95;;
70725;SDS011;58304;53.104;6.022;2023-02-15T06:15:47;56.80;;;22.02;;
70725;SDS011;58304;53.104;6.022;2023-02-15T06:18:12;53.92;;;20.48;;
70725;SDS011;58304;53.104;6.022;2023-02-15T06:20:38;48.28;;;20.13;;
70725;SDS011;58304;53.104;6.022;2023-02-15T06:23:03;58.85;;;22.55;;
70725;SDS011;58304;53.104;6.022;2023-02-15T06:25:29;51.03;;;21.88;;
70725;SDS011;58304;53.104;6.022;2023-02-15T06:27:55;49.25;;;20.75;;
70725;SDS011;58304;53.104;6.022;2023-02-15T06:30:20;53.00;;;20.33;;
70725;SDS011;58304;53.104;6.022;2023-02-15T06:32:46;50.78;;;20.92;;
70725;SDS011;58304;53.104;6.022;2023-02-15T06:35:12;52.17;;;20.30;;
70725;SDS011;58304;53.104;6.022;2023-02-15T06:37:38;53.17;;;21.52;;
70725;SDS011;58304;53.104;6.022;2023-02-15T06:40:04;50.70;;;21.33;;
70725;SDS011;58304;53.104;6.022;2023-02-15T06:42:31;51.60;;;21.48;;
70725;SDS011;58304;53.104;6.022;2023-02-15T06:44:56;46.67;;;20.95;;
70725;SDS011;58304;53.104;6.022;2023-02-15T06:47:22;47.88;;;21.45;;
70725;SDS011;58304;53.104;6.022;2023-02-15T06:49:47;53.13;;;20.48;;
70725;SDS011;58304;53.104;6.022;2023-02-15T06:52:13;47.78;;;20.80;;
70725;SDS011;58304;53.104;6.022;2023-02-15T06:54:39;51.63;;;21.17;;
70725;SDS011;58304;53.104;6.022;2023-02-15T06:57:04;51.30;;;21.52;;
70725;SDS011;58304;53.104;6.022;2023-02-15T06:59:30;56.42;;;20.85;;
70725;SDS011;58304;53.104;6.022;2023-02-15T07:01:55;48.95;;;20.67;;
70725;SDS011;58304;53.104;6.022;2023-02-15T07:04:21;51.30;;;20.92;;
70725;SDS011;58304;53.104;6.022;2023-02-15T07:06:46;51.03;;;21.67;;
70725;SDS011;58304;53.104;6.022;2023-02-15T07:09:12;54.65;;;22.15;;
70725;SDS011;58304;53.104;6.022;2023-02-15T07:11:38;51.03;;;22.42;;
70725;SDS011;58304;53.104;6.022;2023-02-15T07:14:22;50.30;;;21.02;;
70725;SDS011;58304;53.104;6.022;2023-02-15T07:16:48;50.75;;;20.98;;
70725;SDS011;58304;53.104;6.022;2023-02-15T07:19:13;50.33;;;20.75;;
70725;SDS011;58304;53.104;6.022;2023-02-15T07:21:39;49.58;;;21.85;;
70725;SDS011;58304;53.104;6.022;2023-02-15T07:24:04;52.85;;;21.33;;
70725;SDS011;58304;53.104;6.022;2023-02-15T07:26:31;53.55;;;22.55;;
70725;SDS011;58304;53.104;6.022;2023-02-15T07:28:57;50.40;;;20.40;;
70725;SDS011;58304;53.104;6.022;2023-02-15T07:31:23;52.92;;;21.35;;
70725;SDS011;58304;53.104;6.022;2023-02-15T07:33:48;44.50;;;19.52;;
70725;SDS011;58304;53.104;6.022;2023-02-15T07:36:14;47.90;;;20.38;;
70725;SDS011;58304;53.104;6.022;2023-02-15T07:38:40;52.35;;;20.67;;
70725;SDS011;58304;53.104;6.022;2023-02-15T07:41:08;46.28;;;19.83;;
70725;SDS011;58304;53.104;6.022;2023-02-15T07:43:37;45.20;;;20.88;;
70725;SDS011;58304;53.104;6.022;2023-02-15T07:46:05;55.20;;;21.23;;
70725;SDS011;58304;53.104;6.022;2023-02-15T07:48:33;51.00;;;21.05;;
70725;SDS011;58304;53.104;6.022;2023-02-15T07:51:01;50.85;;;22.05;;
70725;SDS011;58304;53.104;6.022;2023-02-15T07:53:28;51.08;;;21.55;;
70725;SDS011;58304;53.104;6.022;2023-02-15T07:55:54;53.65;;;23.67;;
70725;SDS011;58304;53.104;6.022;2023-02-15T07:58:22;52.90;;;23.58;;
70725;SDS011;58304;53.104;6.022;2023-02-15T08:01:08;56.30;;;23.67;;
70725;SDS011;58304;53.104;6.022;2023-02-15T08:03:33;53.03;;;23.55;;
70725;SDS011;58304;53.104;6.022;2023-02-15T08:05:59;51.92;;;22.83;;
70725;SDS011;58304;53.104;6.022;2023-02-15T08:08:26;47.17;;;21.70;;
70725;SDS011;58304;53.104;6.022;2023-02-15T08:11:13;50.08;;;23.20;;
70725;SDS011;58304;53.104;6.022;2023-02-15T08:16:31;44.72;;;20.80;;
70725;SDS011;58304;53.104;6.022;2023-02-15T08:19:36;41.50;;;20.30;;
70725;SDS011;58304;53.104;6.022;2023-02-15T08:21:59;40.40;;;19.20;;
70725;SDS011;58304;53.104;6.022;2023-02-15T08:24:33;40.72;;;18.80;;
70725;SDS011;58304;53.104;6.022;2023-02-15T08:27:02;35.78;;;18.50;;
70725;SDS011;58304;53.104;6.022;2023-02-15T08:29:29;34.47;;;17.98;;
70725;SDS011;58304;53.104;6.022;2023-02-15T08:31:57;36.75;;;17.60;;
70725;SDS011;58304;53.104;6.022;2023-02-15T08:34:28;35.03;;;16.25;;
70725;SDS011;58304;53.104;6.022;2023-02-15T08:36:56;39.35;;;17.40;;
70725;SDS011;58304;53.104;6.022;2023-02-15T08:41:47;32.05;;;15.73;;
70725;SDS011;58304;53.104;6.022;2023-02-15T08:46:41;32.20;;;16.75;;
70725;SDS011;58304;53.104;6.022;2023-02-15T08:49:08;33.80;;;16.67;;
70725;SDS011;58304;53.104;6.022;2023-02-15T08:51:36;30.60;;;15.68;;
70725;SDS011;58304;53.104;6.022;2023-02-15T08:54:04;32.58;;;16.00;;
70725;SDS011;58304;53.104;6.022;2023-02-15T08:56:34;34.95;;;17.15;;
70725;SDS011;58304;53.104;6.022;2023-02-15T08:59:01;33.78;;;17.65;;
70725;SDS011;58304;53.104;6.022;2023-02-15T09:01:29;33.45;;;17.20;;
70725;SDS011;58304;53.104;6.022;2023-02-15T09:03:58;34.70;;;17.30;;
70725;SDS011;58304;53.104;6.022;2023-02-15T09:06:25;35.58;;;18.25;;
70725;SDS011;58304;53.104;6.022;2023-02-15T09:08:51;36.53;;;18.25;;
70725;SDS011;58304;53.104;6.022;2023-02-15T09:11:18;34.45;;;18.00;;
70725;SDS011;58304;53.104;6.022;2023-02-15T09:13:55;32.72;;;17.27;;
70725;SDS011;58304;53.104;6.022;2023-02-15T09:16:23;34.20;;;18.08;;
70725;SDS011;58304;53.104;6.022;2023-02-15T09:18:50;34.78;;;18.25;;
70725;SDS011;58304;53.104;6.022;2023-02-15T09:21:17;36.10;;;18.20;;
70725;SDS011;58304;53.104;6.022;2023-02-15T09:23:46;35.45;;;18.70;;
70725;SDS011;58304;53.104;6.022;2023-02-15T09:26:15;41.80;;;19.38;;
70725;SDS011;58304;53.104;6.022;2023-02-15T09:28:45;34.70;;;18.05;;
70725;SDS011;58304;53.104;6.022;2023-02-15T09:31:21;30.90;;;16.70;;
70725;SDS011;58304;53.104;6.022;2023-02-15T09:33:52;34.25;;;18.30;;
70725;SDS011;58304;53.104;6.022;2023-02-15T09:36:19;31.95;;;17.85;;
70725;SDS011;58304;53.104;6.022;2023-02-15T09:38:46;33.00;;;17.13;;
70725;SDS011;58304;53.104;6.022;2023-02-15T09:43:55;35.08;;;18.67;;
70725;SDS011;58304;53.104;6.022;2023-02-15T09:46:47;35.20;;;18.92;;
70725;SDS011;58304;53.104;6.022;2023-02-15T09:52:40;35.63;;;18.27;;
70725;SDS011;58304;53.104;6.022;2023-02-15T10:04:40;44.25;;;20.55;;
70725;SDS011;58304;53.104;6.022;2023-02-15T10:07:29;37.88;;;20.40;;
70725;SDS011;58304;53.104;6.022;2023-02-15T10:10:45;39.10;;;20.45;;
70725;SDS011;58304;53.104;6.022;2023-02-15T10:18:24;40.42;;;21.90;;
70725;SDS011;58304;53.104;6.022;2023-02-15T10:21:23;39.60;;;21.75;;
70725;SDS011;58304;53.104;6.022;2023-02-15T10:27:12;39.67;;;21.08;;
70725;SDS011;58304;53.104;6.022;2023-02-15T10:29:49;41.10;;;21.48;;
70725;SDS011;58304;53.104;6.022;2023-02-15T10:32:28;38.92;;;20.92;;
70725;SDS011;58304;53.104;6.022;2023-02-15T10:37:32;39.53;;;21.70;;
70725;SDS011;58304;53.104;6.022;2023-02-15T10:40:17;40.25;;;22.08;;
70725;SDS011;58304;53.104;6.022;2023-02-15T10:54:05;44.72;;;22.63;;
70725;SDS011;58304;53.104;6.022;2023-02-15T10:56:59;42.85;;;23.08;;
70725;SDS011;58304;53.104;6.022;2023-02-15T11:07:58;45.47;;;22.95;;
70725;SDS011;58304;53.104;6.022;2023-02-15T11:10:28;45.55;;;23.65;;
70725;SDS011;58304;53.104;6.022;2023-02-15T11:13:12;44.58;;;22.20;;
70725;SDS011;58304;53.104;6.022;2023-02-15T11:18:18;42.65;;;22.85;;
70725;SDS011;58304;53.104;6.022;2023-02-15T11:23:32;44.80;;;23.48;;
70725;SDS011;58304;53.104;6.022;2023-02-15T11:26:04;45.85;;;24.40;;
70725;SDS011;58304;53.104;6.022;2023-02-15T11:29:00;47.42;;;23.55;;
70725;SDS011;58304;53.104;6.022;2023-02-15T11:31:34;46.55;;;23.83;;
70725;SDS011;58304;53.104;6.022;2023-02-15T11:34:19;49.60;;;24.65;;
70725;SDS011;58304;53.104;6.022;2023-02-15T11:36:50;52.08;;;25.45;;
70725;SDS011;58304;53.104;6.022;2023-02-15T11:39:19;47.42;;;24.38;;
70725;SDS011;58304;53.104;6.022;2023-02-15T11:41:47;50.25;;;25.75;;
70725;SDS011;58304;53.104;6.022;2023-02-15T11:47:00;47.85;;;25.30;;
70725;SDS011;58304;53.104;6.022;2023-02-15T11:51:53;52.30;;;25.52;;
70725;SDS011;58304;53.104;6.022;2023-02-15T11:54:21;49.25;;;25.52;;
70725;SDS011;58304;53.104;6.022;2023-02-15T11:56:53;51.08;;;25.33;;
70725;SDS011;58304;53.104;6.022;2023-02-15T11:59:26;49.35;;;24.83;;
70725;SDS011;58304;53.104;6.022;2023-02-15T12:01:56;48.42;;;24.63;;
70725;SDS011;58304;53.104;6.022;2023-02-15T12:04:26;45.35;;;24.00;;
70725;SDS011;58304;53.104;6.022;2023-02-15T12:12:26;44.90;;;23.80;;
70725;SDS011;58304;53.104;6.022;2023-02-15T12:14:58;45.05;;;22.35;;
70725;SDS011;58304;53.104;6.022;2023-02-15T12:17:26;41.92;;;22.25;;
70725;SDS011;58304;53.104;6.022;2023-02-15T12:20:03;40.63;;;21.63;;
70725;SDS011;58304;53.104;6.022;2023-02-15T12:22:33;43.75;;;21.92;;
70725;SDS011;58304;53.104;6.022;2023-02-15T12:25:02;38.50;;;20.98;;
70725;SDS011;58304;53.104;6.022;2023-02-15T12:27:44;39.05;;;18.88;;
70725;SDS011;58304;53.104;6.022;2023-02-15T12:32:53;42.45;;;20.45;;
70725;SDS011;58304;53.104;6.022;2023-02-15T12:35:32;40.95;;;20.55;;
70725;SDS011;58304;53.104;6.022;2023-02-15T12:38:04;43.33;;;21.27;;
70725;SDS011;58304;53.104;6.022;2023-02-15T12:41:02;38.92;;;19.50;;
70725;SDS011;58304;53.104;6.022;2023-02-15T12:43:32;40.08;;;19.00;;
70725;SDS011;58304;53.104;6.022;2023-02-15T12:46:19;39.78;;;20.08;;
70725;SDS011;58304;53.104;6.022;2023-02-15T12:49:36;41.75;;;21.23;;
70725;SDS011;58304;53.104;6.022;2023-02-15T12:51:42;40.83;;;20.00;;
70725;SDS011;58304;53.104;6.022;2023-02-15T12:54:25;42.90;;;19.48;;
70725;SDS011;58304;53.104;6.022;2023-02-15T12:59:56;37.85;;;18.67;;
70725;SDS011;58304;53.104;6.022;2023-02-15T13:02:35;35.97;;;17.88;;
70725;SDS011;58304;53.104;6.022;2023-02-15T13:05:14;37.80;;;18.75;;
70725;SDS011;58304;53.104;6.022;2023-02-15T13:07:45;37.47;;;18.15;;
70725;SDS011;58304;53.104;6.022;2023-02-15T13:10:33;39.38;;;18.60;;
70725;SDS011;58304;53.104;6.022;2023-02-15T13:13:02;37.90;;;19.65;;
70725;SDS011;58304;53.104;6.022;2023-02-15T13:15:36;39.00;;;19.45;;
70725;SDS011;58304;53.104;6.022;2023-02-15T13:18:05;37.53;;;19.48;;
70725;SDS011;58304;53.104;6.022;2023-02-15T13:20:38;41.92;;;19.88;;
70725;SDS011;58304;53.104;6.022;2023-02-15T13:23:06;38.38;;;18.92;;
70725;SDS011;58304;53.104;6.022;2023-02-15T13:25:45;38.15;;;19.38;;
70725;SDS011;58304;53.104;6.022;2023-02-15T13:28:15;36.45;;;19.15;;
70725;SDS011;58304;53.104;6.022;2023-02-15T13:30:44;36.88;;;19.33;;
70725;SDS011;58304;53.104;6.022;2023-02-15T13:36:05;37.28;;;18.50;;
70725;SDS011;58304;53.104;6.022;2023-02-15T13:38:54;38.92;;;18.85;;
70725;SDS011;58304;53.104;6.022;2023-02-15T13:41:30;36.40;;;18.10;;
70725;SDS011;58304;53.104;6.022;2023-02-15T13:44:02;37.20;;;19.65;;
70725;SDS011;58304;53.104;6.022;2023-02-15T13:46:45;38.88;;;19.42;;
70725;SDS011;58304;53.104;6.022;2023-02-15T13:52:20;38.90;;;19.08;;
70725;SDS011;58304;53.104;6.022;2023-02-15T13:55:49;36.95;;;18.77;;
70725;SDS011;58304;53.104;6.022;2023-02-15T14:03:10;34.85;;;17.83;;
70725;SDS011;58304;53.104;6.022;2023-02-15T14:06:02;33.20;;;16.83;;
70725;SDS011;58304;53.104;6.022;2023-02-15T14:08:51;34.58;;;16.48;;
70725;SDS011;58304;53.104;6.022;2023-02-15T14:11:35;36.40;;;17.27;;
70725;SDS011;58304;53.104;6.022;2023-02-15T14:20:18;34.00;;;16.90;;
70725;SDS011;58304;53.104;6.022;2023-02-15T14:35:03;36.35;;;19.00;;
70725;SDS011;58304;53.104;6.022;2023-02-15T14:37:24;41.83;;;19.73;;
70725;SDS011;58304;53.104;6.022;2023-02-15T14:45:55;37.88;;;18.63;;
70725;SDS011;58304;53.104;6.022;2023-02-15T14:48:58;35.88;;;18.92;;
70725;SDS011;58304;53.104;6.022;2023-02-15T14:54:52;37.88;;;16.77;;
70725;SDS011;58304;53.104;6.022;2023-02-15T14:59:26;36.28;;;16.67;;
70725;SDS011;58304;53.104;6.022;2023-02-15T15:04:56;34.92;;;16.10;;
70725;SDS011;58304;53.104;6.022;2023-02-15T15:07:26;38.03;;;18.27;;
70725;SDS011;58304;53.104;6.022;2023-02-15T15:15:13;33.58;;;16.55;;
70725;SDS011;58304;53.104;6.022;2023-02-15T15:18:08;35.22;;;16.67;;
70725;SDS011;58304;53.104;6.022;2023-02-15T15:25:47;33.90;;;16.50;;
70725;SDS011;58304;53.104;6.022;2023-02-15T15:50:13;34.08;;;17.20;;
70725;SDS011;58304;53.104;6.022;2023-02-15T15:52:43;35.13;;;16.00;;
70725;SDS011;58304;53.104;6.022;2023-02-15T15:55:15;39.95;;;17.90;;
70725;SDS011;58304;53.104;6.022;2023-02-15T15:57:44;39.25;;;17.30;;
70725;SDS011;58304;53.104;6.022;2023-02-15T16:02:53;36.67;;;17.40;;
70725;SDS011;58304;53.104;6.022;2023-02-15T16:05:20;34.25;;;16.17;;
70725;SDS011;58304;53.104;6.022;2023-02-15T16:07:46;34.55;;;15.93;;
70725;SDS011;58304;53.104;6.022;2023-02-15T16:12:50;33.47;;;15.60;;
70725;SDS011;58304;53.104;6.022;2023-02-15T16:15:25;34.45;;;15.63;;
70725;SDS011;58304;53.104;6.022;2023-02-15T16:18:10;37.65;;;15.75;;
70725;SDS011;58304;53.104;6.022;2023-02-15T16:20:41;32.45;;;15.50;;
70725;SDS011;58304;53.104;6.022;2023-02-15T16:23:22;34.72;;;14.93;;
70725;SDS011;58304;53.104;6.022;2023-02-15T16:28:49;30.60;;;15.65;;
70725;SDS011;58304;53.104;6.022;2023-02-15T16:31:16;35.58;;;15.90;;
70725;SDS011;58304;53.104;6.022;2023-02-15T16:33:42;38.97;;;17.48;;
70725;SDS011;58304;53.104;6.022;2023-02-15T16:36:19;38.28;;;16.67;;
70725;SDS011;58304;53.104;6.022;2023-02-15T16:41:13;32.33;;;15.10;;
70725;SDS011;58304;53.104;6.022;2023-02-15T16:43:46;34.42;;;16.23;;
70725;SDS011;58304;53.104;6.022;2023-02-15T16:46:16;35.67;;;16.40;;
70725;SDS011;58304;53.104;6.022;2023-02-15T16:48:43;36.33;;;15.88;;
70725;SDS011;58304;53.104;6.022;2023-02-15T16:51:18;37.15;;;17.58;;
70725;SDS011;58304;53.104;6.022;2023-02-15T16:53:48;33.63;;;15.68;;
70725;SDS011;58304;53.104;6.022;2023-02-15T16:56:15;35.42;;;16.40;;
70725;SDS011;58304;53.104;6.022;2023-02-15T16:58:58;36.95;;;15.82;;
70725;SDS011;58304;53.104;6.022;2023-02-15T17:01:25;40.75;;;17.58;;
70725;SDS011;58304;53.104;6.022;2023-02-15T17:04:10;38.15;;;16.88;;
70725;SDS011;58304;53.104;6.022;2023-02-15T17:06:39;33.57;;;17.23;;
70725;SDS011;58304;53.104;6.022;2023-02-15T17:09:05;37.72;;;17.23;;
70725;SDS011;58304;53.104;6.022;2023-02-15T17:11:42;34.15;;;16.83;;
70725;SDS011;58304;53.104;6.022;2023-02-15T17:16:35;37.53;;;17.02;;
70725;SDS011;58304;53.104;6.022;2023-02-15T17:19:24;34.00;;;16.77;;
70725;SDS011;58304;53.104;6.022;2023-02-15T17:21:59;34.10;;;16.85;;
70725;SDS011;58304;53.104;6.022;2023-02-15T17:24:46;35.45;;;16.40;;
70725;SDS011;58304;53.104;6.022;2023-02-15T17:27:15;33.80;;;16.23;;
70725;SDS011;58304;53.104;6.022;2023-02-15T17:29:49;34.35;;;16.45;;
70725;SDS011;58304;53.104;6.022;2023-02-15T17:32:23;33.92;;;16.48;;
70725;SDS011;58304;53.104;6.022;2023-02-15T17:34:58;34.08;;;16.65;;
70725;SDS011;58304;53.104;6.022;2023-02-15T17:42:51;33.63;;;16.70;;
70725;SDS011;58304;53.104;6.022;2023-02-15T17:47:43;36.10;;;16.98;;
70725;SDS011;58304;53.104;6.022;2023-02-15T17:50:15;33.67;;;16.08;;
70725;SDS011;58304;53.104;6.022;2023-02-15T17:52:45;32.73;;;15.87;;
70725;SDS011;58304;53.104;6.022;2023-02-15T17:58:00;33.63;;;17.20;;
70725;SDS011;58304;53.104;6.022;2023-02-15T18:00:28;32.97;;;15.70;;
70725;SDS011;58304;53.104;6.022;2023-02-15T18:03:13;34.00;;;16.27;;
70725;SDS011;58304;53.104;6.022;2023-02-15T18:05:57;37.25;;;17.35;;
70725;SDS011;58304;53.104;6.022;2023-02-15T18:08:42;42.97;;;19.25;;
70725;SDS011;58304;53.104;6.022;2023-02-15T18:11:26;39.25;;;17.77;;
70725;SDS011;58304;53.104;6.022;2023-02-15T18:14:07;43.22;;;19.20;;
70725;SDS011;58304;53.104;6.022;2023-02-15T18:16:38;41.20;;;19.55;;
70725;SDS011;58304;53.104;6.022;2023-02-15T18:19:12;41.78;;;19.70;;
70725;SDS011;58304;53.104;6.022;2023-02-15T18:21:46;38.65;;;18.15;;
70725;SDS011;58304;53.104;6.022;2023-02-15T18:24:16;36.80;;;18.30;;
70725;SDS011;58304;53.104;6.022;2023-02-15T18:29:14;41.28;;;18.55;;